首页
METAR-TAF:

METAR-TAF

机场 :

悉尼机场

悉尼, 澳大利亚

纬度: 33-57S, 经度: 151-11E, 海拔: 6米

当前天气观测

该预报发布于34分钟前的00:30 UTC
风速22节,风向北转东北
温度 25°C
湿度 39%
气压 1019 hPa
能见度10公里或以上
1500米以下无云,无积雨云

METAR: YSSY 130030Z 03022KT CAVOK 25/10 Q1019 NOSIG

时间: 12:04 (01:04 UTC)

预报

该预报发布于2小时和1分钟前的23:03 UTC
预报有效从13日的 00点(UTC)到 14日的 06点(UTC)
风速18节,风向北转东北,有时为28节阵风
能见度10公里或以上
1500米以下无云,无积雨云
从 13日的 0900点(UTC)
风速15节,风向北转东北
能见度10公里或以上
少量云层高于1500英尺
从 13日的 1200点(UTC)
风速10节,风向
能见度10公里或以上
散云层高于1500英尺
从 13日的 2000点(UTC)
风速10节,风向北转东北
能见度10公里或以上
少量云层高于1500英尺
多云层高于12000英尺
从 14日的 0000点(UTC)
风速15节,风向东北
能见度10公里或以上
散云层高于2500英尺
多云层高于10000英尺
小雨

TAF: YSSY 122303Z 1300/1406 03018G28KT CAVOK FM130900 02015KT 9999 FEW015 FM131200 01010KT 9999 SCT015 FM132000 02010KT 9999 FEW015 BKN120 FM140000 04015KT 9999 -RA SCT025 BKN100

超过4000个机场的气象观测和天气预报(METAR&TAF报告)。

可查询的气象台以黄色和红色小点在地图上表示。

将鼠标移到小点上方,可查看气象台名称。

然后点击查看天气观测和预报。

如需切换地图:点击带黑十字的绿色按钮放大地图;点击带横线的绿色按钮缩小地图;或者点击绿色箭头查看邻近地区的地图。


METAR-TAF: